sensor_id;sensor_type;location;lat;lon;timestamp;P1;durP1;ratioP1;P2;durP2;ratioP2
4961;SDS011;2496;52.468;13.342;2023-03-04T00:00:00;38.73;;;16.53;;
4961;SDS011;2496;52.468;13.342;2023-03-04T00:02:28;39.53;;;18.40;;
4961;SDS011;2496;52.468;13.342;2023-03-04T00:04:55;28.57;;;15.83;;
4961;SDS011;2496;52.468;13.342;2023-03-04T00:07:23;45.93;;;18.27;;
4961;SDS011;2496;52.468;13.342;2023-03-04T00:09:50;39.20;;;17.60;;
4961;SDS011;2496;52.468;13.342;2023-03-04T00:12:17;38.67;;;17.50;;
4961;SDS011;2496;52.468;13.342;2023-03-04T00:14:44;35.40;;;16.23;;
4961;SDS011;2496;52.468;13.342;2023-03-04T00:17:12;37.50;;;18.07;;
4961;SDS011;2496;52.468;13.342;2023-03-04T00:19:42;35.00;;;15.70;;
4961;SDS011;2496;52.468;13.342;2023-03-04T00:22:10;32.73;;;16.40;;
4961;SDS011;2496;52.468;13.342;2023-03-04T00:24:37;38.37;;;16.37;;
4961;SDS011;2496;52.468;13.342;2023-03-04T00:27:04;36.40;;;17.53;;
4961;SDS011;2496;52.468;13.342;2023-03-04T00:29:31;41.23;;;17.70;;
4961;SDS011;2496;52.468;13.342;2023-03-04T00:31:58;35.33;;;16.40;;
4961;SDS011;2496;52.468;13.342;2023-03-04T00:34:25;40.93;;;18.67;;
4961;SDS011;2496;52.468;13.342;2023-03-04T00:36:53;42.73;;;18.30;;
4961;SDS011;2496;52.468;13.342;2023-03-04T00:39:25;44.30;;;17.33;;
4961;SDS011;2496;52.468;13.342;2023-03-04T00:41:53;35.63;;;15.47;;
4961;SDS011;2496;52.468;13.342;2023-03-04T00:44:20;34.63;;;15.80;;
4961;SDS011;2496;52.468;13.342;2023-03-04T00:46:47;29.93;;;14.93;;
4961;SDS011;2496;52.468;13.342;2023-03-04T00:49:15;40.13;;;17.00;;
4961;SDS011;2496;52.468;13.342;2023-03-04T00:51:43;32.57;;;16.93;;
4961;SDS011;2496;52.468;13.342;2023-03-04T00:54:12;36.70;;;15.37;;
4961;SDS011;2496;52.468;13.342;2023-03-04T00:56:39;40.47;;;15.70;;
4961;SDS011;2496;52.468;13.342;2023-03-04T00:59:06;33.50;;;15.17;;
4961;SDS011;2496;52.468;13.342;2023-03-04T01:01:33;37.47;;;16.07;;
4961;SDS011;2496;52.468;13.342;2023-03-04T01:04:01;33.20;;;14.60;;
4961;SDS011;2496;52.468;13.342;2023-03-04T01:06:28;34.20;;;14.57;;
4961;SDS011;2496;52.468;13.342;2023-03-04T01:08:55;36.60;;;14.40;;
4961;SDS011;2496;52.468;13.342;2023-03-04T01:11:23;27.70;;;13.27;;
4961;SDS011;2496;52.468;13.342;2023-03-04T01:13:50;36.63;;;14.70;;
4961;SDS011;2496;52.468;13.342;2023-03-04T01:16:17;52.07;;;15.63;;
4961;SDS011;2496;52.468;13.342;2023-03-04T01:18:45;27.83;;;13.00;;
4961;SDS011;2496;52.468;13.342;2023-03-04T01:21:12;37.50;;;15.00;;
4961;SDS011;2496;52.468;13.342;2023-03-04T01:23:40;39.90;;;14.07;;
4961;SDS011;2496;52.468;13.342;2023-03-04T01:26:07;32.73;;;12.60;;
4961;SDS011;2496;52.468;13.342;2023-03-04T01:28:36;27.37;;;13.07;;
4961;SDS011;2496;52.468;13.342;2023-03-04T01:31:03;38.93;;;12.80;;
4961;SDS011;2496;52.468;13.342;2023-03-04T01:33:30;28.00;;;13.17;;
4961;SDS011;2496;52.468;13.342;2023-03-04T01:35:57;24.43;;;11.93;;
4961;SDS011;2496;52.468;13.342;2023-03-04T01:38:25;35.63;;;12.70;;
4961;SDS011;2496;52.468;13.342;2023-03-04T01:40:52;26.37;;;11.87;;
4961;SDS011;2496;52.468;13.342;2023-03-04T01:43:21;25.57;;;12.17;;
4961;SDS011;2496;52.468;13.342;2023-03-04T01:45:53;34.37;;;12.80;;
4961;SDS011;2496;52.468;13.342;2023-03-04T01:48:23;26.47;;;11.10;;
4961;SDS011;2496;52.468;13.342;2023-03-04T01:50:52;26.23;;;11.27;;
4961;SDS011;2496;52.468;13.342;2023-03-04T01:53:20;33.50;;;11.33;;
4961;SDS011;2496;52.468;13.342;2023-03-04T01:55:50;43.77;;;10.63;;
4961;SDS011;2496;52.468;13.342;2023-03-04T01:58:18;28.53;;;10.67;;
4961;SDS011;2496;52.468;13.342;2023-03-04T02:00:46;20.63;;;8.57;;
4961;SDS011;2496;52.468;13.342;2023-03-04T02:03:15;32.37;;;10.47;;
4961;SDS011;2496;52.468;13.342;2023-03-04T02:05:45;23.43;;;9.87;;
4961;SDS011;2496;52.468;13.342;2023-03-04T02:08:19;23.00;;;7.97;;
4961;SDS011;2496;52.468;13.342;2023-03-04T02:10:47;28.30;;;10.67;;
4961;SDS011;2496;52.468;13.342;2023-03-04T02:13:15;35.73;;;9.50;;
4961;SDS011;2496;52.468;13.342;2023-03-04T02:15:43;31.30;;;8.57;;
4961;SDS011;2496;52.468;13.342;2023-03-04T02:18:13;20.50;;;7.80;;
4961;SDS011;2496;52.468;13.342;2023-03-04T02:20:47;22.57;;;8.93;;
4961;SDS011;2496;52.468;13.342;2023-03-04T02:23:21;22.73;;;8.67;;
4961;SDS011;2496;52.468;13.342;2023-03-04T02:25:51;27.63;;;7.60;;
4961;SDS011;2496;52.468;13.342;2023-03-04T02:28:34;18.40;;;6.80;;
4961;SDS011;2496;52.468;13.342;2023-03-04T02:31:01;26.63;;;8.13;;
4961;SDS011;2496;52.468;13.342;2023-03-04T02:33:29;21.20;;;8.50;;
4961;SDS011;2496;52.468;13.342;2023-03-04T02:35:57;20.17;;;7.77;;
4961;SDS011;2496;52.468;13.342;2023-03-04T02:38:24;24.80;;;7.83;;
4961;SDS011;2496;52.468;13.342;2023-03-04T02:40:52;21.30;;;7.77;;
4961;SDS011;2496;52.468;13.342;2023-03-04T02:43:22;20.27;;;8.40;;
4961;SDS011;2496;52.468;13.342;2023-03-04T02:45:50;29.30;;;9.93;;
4961;SDS011;2496;52.468;13.342;2023-03-04T02:48:18;27.93;;;7.77;;
4961;SDS011;2496;52.468;13.342;2023-03-04T02:50:49;18.93;;;7.33;;
4961;SDS011;2496;52.468;13.342;2023-03-04T02:53:17;19.87;;;7.20;;
4961;SDS011;2496;52.468;13.342;2023-03-04T02:55:46;19.23;;;8.57;;
4961;SDS011;2496;52.468;13.342;2023-03-04T02:58:13;21.37;;;8.00;;
4961;SDS011;2496;52.468;13.342;2023-03-04T03:00:42;24.00;;;8.53;;
4961;SDS011;2496;52.468;13.342;2023-03-04T03:03:09;27.97;;;7.50;;
4961;SDS011;2496;52.468;13.342;2023-03-04T03:05:36;35.93;;;7.17;;
4961;SDS011;2496;52.468;13.342;2023-03-04T03:08:04;27.73;;;8.33;;
4961;SDS011;2496;52.468;13.342;2023-03-04T03:10:32;19.17;;;8.27;;
4961;SDS011;2496;52.468;13.342;2023-03-04T03:13:00;27.60;;;8.23;;
4961;SDS011;2496;52.468;13.342;2023-03-04T03:15:27;19.97;;;7.17;;
4961;SDS011;2496;52.468;13.342;2023-03-04T03:17:56;19.70;;;7.13;;
4961;SDS011;2496;52.468;13.342;2023-03-04T03:20:23;20.57;;;9.20;;
4961;SDS011;2496;52.468;13.342;2023-03-04T03:22:50;15.67;;;7.00;;
4961;SDS011;2496;52.468;13.342;2023-03-04T03:25:17;31.20;;;8.03;;
4961;SDS011;2496;52.468;13.342;2023-03-04T03:27:45;22.87;;;6.10;;
4961;SDS011;2496;52.468;13.342;2023-03-04T03:30:13;17.30;;;6.60;;
4961;SDS011;2496;52.468;13.342;2023-03-04T03:32:41;28.83;;;7.50;;
4961;SDS011;2496;52.468;13.342;2023-03-04T03:35:10;21.43;;;6.07;;
4961;SDS011;2496;52.468;13.342;2023-03-04T03:37:38;21.40;;;6.77;;
4961;SDS011;2496;52.468;13.342;2023-03-04T03:40:05;15.00;;;5.40;;
4961;SDS011;2496;52.468;13.342;2023-03-04T03:42:33;26.10;;;7.13;;
4961;SDS011;2496;52.468;13.342;2023-03-04T03:45:01;19.27;;;6.50;;
4961;SDS011;2496;52.468;13.342;2023-03-04T03:47:29;30.27;;;7.83;;
4961;SDS011;2496;52.468;13.342;2023-03-04T03:49:56;25.90;;;6.90;;
4961;SDS011;2496;52.468;13.342;2023-03-04T03:52:25;22.97;;;7.77;;
4961;SDS011;2496;52.468;13.342;2023-03-04T03:54:53;33.43;;;7.00;;
4961;SDS011;2496;52.468;13.342;2023-03-04T03:57:20;23.03;;;6.80;;
4961;SDS011;2496;52.468;13.342;2023-03-04T03:59:47;20.53;;;6.70;;
4961;SDS011;2496;52.468;13.342;2023-03-04T04:02:14;19.57;;;6.53;;
4961;SDS011;2496;52.468;13.342;2023-03-04T04:04:41;19.70;;;6.47;;
4961;SDS011;2496;52.468;13.342;2023-03-04T04:07:09;15.87;;;5.57;;
4961;SDS011;2496;52.468;13.342;2023-03-04T04:09:40;19.60;;;6.33;;
4961;SDS011;2496;52.468;13.342;2023-03-04T04:12:08;27.43;;;7.37;;
4961;SDS011;2496;52.468;13.342;2023-03-04T04:14:37;21.10;;;6.63;;
4961;SDS011;2496;52.468;13.342;2023-03-04T04:17:04;19.13;;;6.17;;
4961;SDS011;2496;52.468;13.342;2023-03-04T04:19:31;24.57;;;7.33;;
4961;SDS011;2496;52.468;13.342;2023-03-04T04:21:58;29.00;;;6.27;;
4961;SDS011;2496;52.468;13.342;2023-03-04T04:24:28;19.97;;;7.10;;
4961;SDS011;2496;52.468;13.342;2023-03-04T04:26:57;27.03;;;7.67;;
4961;SDS011;2496;52.468;13.342;2023-03-04T04:29:24;35.60;;;7.10;;
4961;SDS011;2496;52.468;13.342;2023-03-04T04:31:51;23.40;;;6.67;;
4961;SDS011;2496;52.468;13.342;2023-03-04T04:34:18;12.03;;;5.53;;
4961;SDS011;2496;52.468;13.342;2023-03-04T04:36:45;16.10;;;6.10;;
4961;SDS011;2496;52.468;13.342;2023-03-04T04:39:12;18.50;;;6.23;;
4961;SDS011;2496;52.468;13.342;2023-03-04T04:41:40;17.50;;;6.17;;
4961;SDS011;2496;52.468;13.342;2023-03-04T04:44:10;13.90;;;5.70;;
4961;SDS011;2496;52.468;13.342;2023-03-04T04:46:38;21.97;;;6.20;;
4961;SDS011;2496;52.468;13.342;2023-03-04T04:49:06;13.50;;;5.03;;
4961;SDS011;2496;52.468;13.342;2023-03-04T04:51:34;13.27;;;5.77;;
4961;SDS011;2496;52.468;13.342;2023-03-04T04:54:02;15.53;;;6.43;;
4961;SDS011;2496;52.468;13.342;2023-03-04T04:56:30;15.20;;;6.20;;
4961;SDS011;2496;52.468;13.342;2023-03-04T04:58:58;21.57;;;7.93;;
4961;SDS011;2496;52.468;13.342;2023-03-04T05:01:28;19.97;;;5.97;;
4961;SDS011;2496;52.468;13.342;2023-03-04T05:03:55;15.80;;;5.03;;
4961;SDS011;2496;52.468;13.342;2023-03-04T05:06:23;9.80;;;4.17;;
4961;SDS011;2496;52.468;13.342;2023-03-04T05:08:50;14.50;;;4.43;;
4961;SDS011;2496;52.468;13.342;2023-03-04T05:11:18;21.87;;;5.07;;
4961;SDS011;2496;52.468;13.342;2023-03-04T05:13:47;12.77;;;4.77;;
4961;SDS011;2496;52.468;13.342;2023-03-04T05:16:15;17.47;;;5.80;;
4961;SDS011;2496;52.468;13.342;2023-03-04T05:18:44;15.73;;;5.53;;
4961;SDS011;2496;52.468;13.342;2023-03-04T05:21:12;13.20;;;4.60;;
4961;SDS011;2496;52.468;13.342;2023-03-04T05:23:40;17.27;;;5.33;;
4961;SDS011;2496;52.468;13.342;2023-03-04T05:26:09;19.47;;;3.87;;
4961;SDS011;2496;52.468;13.342;2023-03-04T05:28:38;13.30;;;3.63;;
4961;SDS011;2496;52.468;13.342;2023-03-04T05:31:06;17.83;;;4.23;;
4961;SDS011;2496;52.468;13.342;2023-03-04T05:33:33;19.47;;;3.60;;
4961;SDS011;2496;52.468;13.342;2023-03-04T05:36:03;15.83;;;4.23;;
4961;SDS011;2496;52.468;13.342;2023-03-04T05:38:31;18.53;;;4.80;;
4961;SDS011;2496;52.468;13.342;2023-03-04T05:40:59;12.73;;;4.13;;
4961;SDS011;2496;52.468;13.342;2023-03-04T05:43:28;26.13;;;5.63;;
4961;SDS011;2496;52.468;13.342;2023-03-04T05:45:58;11.80;;;4.60;;
4961;SDS011;2496;52.468;13.342;2023-03-04T05:48:26;21.77;;;5.17;;
4961;SDS011;2496;52.468;13.342;2023-03-04T05:50:53;9.60;;;3.87;;
4961;SDS011;2496;52.468;13.342;2023-03-04T05:53:23;17.33;;;4.60;;
4961;SDS011;2496;52.468;13.342;2023-03-04T05:55:50;28.30;;;6.90;;
4961;SDS011;2496;52.468;13.342;2023-03-04T05:58:18;11.40;;;4.13;;
4961;SDS011;2496;52.468;13.342;2023-03-04T06:00:46;6.40;;;3.47;;
4961;SDS011;2496;52.468;13.342;2023-03-04T06:03:14;12.47;;;3.90;;
4961;SDS011;2496;52.468;13.342;2023-03-04T06:05:42;17.93;;;4.30;;
4961;SDS011;2496;52.468;13.342;2023-03-04T06:08:10;8.17;;;3.70;;
4961;SDS011;2496;52.468;13.342;2023-03-04T06:10:40;10.20;;;3.33;;
4961;SDS011;2496;52.468;13.342;2023-03-04T06:13:08;15.70;;;3.40;;
4961;SDS011;2496;52.468;13.342;2023-03-04T06:15:35;18.83;;;3.90;;
4961;SDS011;2496;52.468;13.342;2023-03-04T06:18:03;11.90;;;3.50;;
4961;SDS011;2496;52.468;13.342;2023-03-04T06:20:31;10.30;;;3.50;;
4961;SDS011;2496;52.468;13.342;2023-03-04T06:22:58;12.47;;;4.67;;
4961;SDS011;2496;52.468;13.342;2023-03-04T06:25:26;11.63;;;3.57;;
4961;SDS011;2496;52.468;13.342;2023-03-04T06:27:55;6.40;;;3.03;;
4961;SDS011;2496;52.468;13.342;2023-03-04T06:30:22;10.90;;;3.27;;
4961;SDS011;2496;52.468;13.342;2023-03-04T06:32:49;9.23;;;3.83;;
4961;SDS011;2496;52.468;13.342;2023-03-04T06:35:17;12.30;;;3.70;;
4961;SDS011;2496;52.468;13.342;2023-03-04T06:37:44;7.43;;;3.20;;
4961;SDS011;2496;52.468;13.342;2023-03-04T06:40:12;9.97;;;3.70;;
4961;SDS011;2496;52.468;13.342;2023-03-04T06:42:39;11.77;;;4.30;;
4961;SDS011;2496;52.468;13.342;2023-03-04T06:45:09;21.13;;;4.10;;
4961;SDS011;2496;52.468;13.342;2023-03-04T06:47:37;12.80;;;3.50;;
4961;SDS011;2496;52.468;13.342;2023-03-04T06:50:04;14.60;;;4.47;;
4961;SDS011;2496;52.468;13.342;2023-03-04T06:52:31;10.33;;;3.90;;
4961;SDS011;2496;52.468;13.342;2023-03-04T06:54:58;7.20;;;3.67;;
4961;SDS011;2496;52.468;13.342;2023-03-04T06:57:27;5.63;;;3.30;;
4961;SDS011;2496;52.468;13.342;2023-03-04T06:59:54;12.70;;;4.27;;
4961;SDS011;2496;52.468;13.342;2023-03-04T07:02:23;14.73;;;4.57;;
4961;SDS011;2496;52.468;13.342;2023-03-04T07:04:50;11.60;;;3.73;;
4961;SDS011;2496;52.468;13.342;2023-03-04T07:07:17;17.63;;;4.50;;
4961;SDS011;2496;52.468;13.342;2023-03-04T07:09:45;13.53;;;4.93;;
4961;SDS011;2496;52.468;13.342;2023-03-04T07:12:13;8.63;;;4.10;;
4961;SDS011;2496;52.468;13.342;2023-03-04T07:14:40;12.10;;;4.80;;
4961;SDS011;2496;52.468;13.342;2023-03-04T07:17:08;16.90;;;3.97;;
4961;SDS011;2496;52.468;13.342;2023-03-04T07:19:36;10.60;;;4.10;;
4961;SDS011;2496;52.468;13.342;2023-03-04T07:22:03;18.30;;;4.23;;
4961;SDS011;2496;52.468;13.342;2023-03-04T07:24:30;5.53;;;3.83;;
4961;SDS011;2496;52.468;13.342;2023-03-04T07:26:57;11.43;;;4.77;;
4961;SDS011;2496;52.468;13.342;2023-03-04T07:29:24;10.80;;;3.77;;
4961;SDS011;2496;52.468;13.342;2023-03-04T07:31:51;16.03;;;4.70;;
4961;SDS011;2496;52.468;13.342;2023-03-04T07:34:18;7.73;;;4.00;;
4961;SDS011;2496;52.468;13.342;2023-03-04T07:36:46;12.10;;;4.47;;
4961;SDS011;2496;52.468;13.342;2023-03-04T07:39:13;15.90;;;4.17;;
4961;SDS011;2496;52.468;13.342;2023-03-04T07:41:40;5.90;;;3.93;;
4961;SDS011;2496;52.468;13.342;2023-03-04T07:44:08;11.83;;;4.80;;
4961;SDS011;2496;52.468;13.342;2023-03-04T07:46:37;7.63;;;3.63;;
4961;SDS011;2496;52.468;13.342;2023-03-04T07:49:04;8.80;;;3.93;;
4961;SDS011;2496;52.468;13.342;2023-03-04T07:51:31;10.30;;;4.17;;
4961;SDS011;2496;52.468;13.342;2023-03-04T07:54:00;9.50;;;3.60;;
4961;SDS011;2496;52.468;13.342;2023-03-04T07:56:28;9.83;;;4.30;;
4961;SDS011;2496;52.468;13.342;2023-03-04T07:58:56;12.50;;;4.00;;
4961;SDS011;2496;52.468;13.342;2023-03-04T08:01:24;7.13;;;3.40;;
4961;SDS011;2496;52.468;13.342;2023-03-04T08:03:53;9.10;;;4.17;;
4961;SDS011;2496;52.468;13.342;2023-03-04T08:06:21;5.93;;;3.83;;
4961;SDS011;2496;52.468;13.342;2023-03-04T08:08:48;7.70;;;3.07;;
4961;SDS011;2496;52.468;13.342;2023-03-04T08:11:22;7.63;;;3.90;;
4961;SDS011;2496;52.468;13.342;2023-03-04T08:13:49;12.00;;;3.97;;
4961;SDS011;2496;52.468;13.342;2023-03-04T08:16:18;13.07;;;5.53;;
4961;SDS011;2496;52.468;13.342;2023-03-04T08:18:47;14.73;;;7.50;;
4961;SDS011;2496;52.468;13.342;2023-03-04T08:21:16;19.33;;;10.07;;
4961;SDS011;2496;52.468;13.342;2023-03-04T08:23:44;34.27;;;15.50;;
4961;SDS011;2496;52.468;13.342;2023-03-04T08:26:14;14.80;;;6.13;;
4961;SDS011;2496;52.468;13.342;2023-03-04T08:28:43;17.27;;;8.23;;
4961;SDS011;2496;52.468;13.342;2023-03-04T08:31:10;28.20;;;14.53;;
4961;SDS011;2496;52.468;13.342;2023-03-04T08:33:37;27.30;;;14.37;;
4961;SDS011;2496;52.468;13.342;2023-03-04T08:36:05;28.30;;;12.60;;
4961;SDS011;2496;52.468;13.342;2023-03-04T08:38:33;15.33;;;8.20;;
4961;SDS011;2496;52.468;13.342;2023-03-04T08:41:00;15.83;;;10.90;;
4961;SDS011;2496;52.468;13.342;2023-03-04T08:43:28;11.97;;;4.30;;
4961;SDS011;2496;52.468;13.342;2023-03-04T08:45:57;11.80;;;3.90;;
4961;SDS011;2496;52.468;13.342;2023-03-04T08:48:24;9.40;;;5.60;;
4961;SDS011;2496;52.468;13.342;2023-03-04T08:50:54;9.80;;;5.87;;
4961;SDS011;2496;52.468;13.342;2023-03-04T08:53:21;14.30;;;5.17;;
4961;SDS011;2496;52.468;13.342;2023-03-04T08:55:49;15.33;;;4.30;;
4961;SDS011;2496;52.468;13.342;2023-03-04T08:58:17;13.90;;;5.87;;
4961;SDS011;2496;52.468;13.342;2023-03-04T09:00:45;11.03;;;3.93;;
4961;SDS011;2496;52.468;13.342;2023-03-04T09:03:17;9.47;;;3.10;;
4961;SDS011;2496;52.468;13.342;2023-03-04T09:05:45;8.00;;;3.40;;
4961;SDS011;2496;52.468;13.342;2023-03-04T09:08:12;8.73;;;3.70;;
4961;SDS011;2496;52.468;13.342;2023-03-04T09:10:40;6.07;;;3.30;;
4961;SDS011;2496;52.468;13.342;2023-03-04T09:13:07;8.00;;;3.20;;
4961;SDS011;2496;52.468;13.342;2023-03-04T09:15:35;7.40;;;3.53;;
4961;SDS011;2496;52.468;13.342;2023-03-04T09:18:03;9.97;;;3.50;;
4961;SDS011;2496;52.468;13.342;2023-03-04T09:20:32;5.60;;;2.97;;
4961;SDS011;2496;52.468;13.342;2023-03-04T09:22:59;8.03;;;3.90;;
4961;SDS011;2496;52.468;13.342;2023-03-04T09:25:26;5.93;;;3.60;;
4961;SDS011;2496;52.468;13.342;2023-03-04T09:27:53;8.53;;;3.00;;
4961;SDS011;2496;52.468;13.342;2023-03-04T09:30:20;8.73;;;3.13;;
4961;SDS011;2496;52.468;13.342;2023-03-04T09:32:48;11.83;;;4.57;;
4961;SDS011;2496;52.468;13.342;2023-03-04T09:35:15;9.27;;;4.07;;
4961;SDS011;2496;52.468;13.342;2023-03-04T09:37:45;10.40;;;4.40;;
4961;SDS011;2496;52.468;13.342;2023-03-04T09:40:17;11.70;;;4.30;;
4961;SDS011;2496;52.468;13.342;2023-03-04T09:42:47;7.13;;;2.83;;
4961;SDS011;2496;52.468;13.342;2023-03-04T09:45:17;12.20;;;3.33;;
4961;SDS011;2496;52.468;13.342;2023-03-04T09:47:47;6.37;;;2.60;;
4961;SDS011;2496;52.468;13.342;2023-03-04T09:50:16;6.27;;;3.20;;
4961;SDS011;2496;52.468;13.342;2023-03-04T09:52:51;13.30;;;3.23;;
4961;SDS011;2496;52.468;13.342;2023-03-04T09:55:29;14.23;;;3.17;;
4961;SDS011;2496;52.468;13.342;2023-03-04T09:58:02;6.97;;;3.60;;
4961;SDS011;2496;52.468;13.342;2023-03-04T10:00:34;6.37;;;3.13;;
4961;SDS011;2496;52.468;13.342;2023-03-04T10:03:11;9.07;;;3.23;;
4961;SDS011;2496;52.468;13.342;2023-03-04T10:05:45;7.57;;;2.73;;
4961;SDS011;2496;52.468;13.342;2023-03-04T10:08:25;13.93;;;4.03;;
4961;SDS011;2496;52.468;13.342;2023-03-04T10:11:08;8.23;;;3.20;;
4961;SDS011;2496;52.468;13.342;2023-03-04T10:13:42;10.00;;;3.47;;
4961;SDS011;2496;52.468;13.342;2023-03-04T10:16:20;12.53;;;3.20;;
4961;SDS011;2496;52.468;13.342;2023-03-04T10:18:51;12.33;;;3.70;;
4961;SDS011;2496;52.468;13.342;2023-03-04T10:21:23;13.50;;;2.53;;
4961;SDS011;2496;52.468;13.342;2023-03-04T10:23:57;9.43;;;2.77;;
4961;SDS011;2496;52.468;13.342;2023-03-04T10:26:28;10.30;;;2.67;;
4961;SDS011;2496;52.468;13.342;2023-03-04T10:28:57;11.30;;;2.70;;
4961;SDS011;2496;52.468;13.342;2023-03-04T10:31:29;13.03;;;3.23;;
4961;SDS011;2496;52.468;13.342;2023-03-04T10:34:00;11.10;;;2.40;;
4961;SDS011;2496;52.468;13.342;2023-03-04T10:36:43;14.13;;;3.07;;
4961;SDS011;2496;52.468;13.342;2023-03-04T10:39:26;10.33;;;2.80;;
4961;SDS011;2496;52.468;13.342;2023-03-04T10:41:58;16.07;;;2.63;;
4961;SDS011;2496;52.468;13.342;2023-03-04T10:44:26;12.27;;;2.60;;
4961;SDS011;2496;52.468;13.342;2023-03-04T10:46:55;16.90;;;2.63;;
4961;SDS011;2496;52.468;13.342;2023-03-04T10:49:23;16.07;;;3.10;;
4961;SDS011;2496;52.468;13.342;2023-03-04T10:51:53;12.47;;;3.17;;
4961;SDS011;2496;52.468;13.342;2023-03-04T10:54:28;17.37;;;3.70;;
4961;SDS011;2496;52.468;13.342;2023-03-04T10:57:00;8.77;;;2.50;;
4961;SDS011;2496;52.468;13.342;2023-03-04T10:59:39;18.00;;;4.27;;
4961;SDS011;2496;52.468;13.342;2023-03-04T11:02:22;25.83;;;3.90;;
4961;SDS011;2496;52.468;13.342;2023-03-04T11:04:52;12.23;;;3.60;;
4961;SDS011;2496;52.468;13.342;2023-03-04T11:07:22;9.50;;;2.73;;
4961;SDS011;2496;52.468;13.342;2023-03-04T11:09:51;14.30;;;3.70;;
4961;SDS011;2496;52.468;13.342;2023-03-04T11:12:19;14.30;;;3.00;;
4961;SDS011;2496;52.468;13.342;2023-03-04T11:14:48;14.03;;;2.93;;
4961;SDS011;2496;52.468;13.342;2023-03-04T11:17:20;17.00;;;3.70;;
4961;SDS011;2496;52.468;13.342;2023-03-04T11:19:51;11.80;;;2.97;;
4961;SDS011;2496;52.468;13.342;2023-03-04T11:22:22;15.23;;;2.60;;
4961;SDS011;2496;52.468;13.342;2023-03-04T11:24:55;12.83;;;3.27;;
4961;SDS011;2496;52.468;13.342;2023-03-04T11:27:28;15.50;;;3.17;;
4961;SDS011;2496;52.468;13.342;2023-03-04T11:30:03;17.00;;;3.33;;
4961;SDS011;2496;52.468;13.342;2023-03-04T11:32:43;20.90;;;3.73;;
4961;SDS011;2496;52.468;13.342;2023-03-04T11:35:14;11.43;;;3.60;;
4961;SDS011;2496;52.468;13.342;2023-03-04T11:37:50;10.13;;;3.17;;
4961;SDS011;2496;52.468;13.342;2023-03-04T11:40:40;20.00;;;3.63;;
4961;SDS011;2496;52.468;13.342;2023-03-04T11:43:11;13.43;;;3.77;;
4961;SDS011;2496;52.468;13.342;2023-03-04T11:48:52;12.33;;;3.40;;
4961;SDS011;2496;52.468;13.342;2023-03-04T11:51:31;14.27;;;3.70;;
4961;SDS011;2496;52.468;13.342;2023-03-04T11:54:15;18.20;;;4.40;;
4961;SDS011;2496;52.468;13.342;2023-03-04T11:56:52;28.33;;;5.17;;
4961;SDS011;2496;52.468;13.342;2023-03-04T11:59:27;14.77;;;3.00;;
4961;SDS011;2496;52.468;13.342;2023-03-04T12:02:11;25.13;;;4.40;;
4961;SDS011;2496;52.468;13.342;2023-03-04T12:07:53;20.43;;;3.73;;
4961;SDS011;2496;52.468;13.342;2023-03-04T12:10:32;23.23;;;3.87;;
4961;SDS011;2496;52.468;13.342;2023-03-04T12:13:19;16.00;;;3.27;;
4961;SDS011;2496;52.468;13.342;2023-03-04T12:16:04;11.43;;;2.70;;
4961;SDS011;2496;52.468;13.342;2023-03-04T12:18:47;15.67;;;4.13;;
4961;SDS011;2496;52.468;13.342;2023-03-04T12:21:29;23.47;;;4.30;;
4961;SDS011;2496;52.468;13.342;2023-03-04T12:27:07;11.23;;;3.27;;
4961;SDS011;2496;52.468;13.342;2023-03-04T12:29:41;25.70;;;5.67;;
4961;SDS011;2496;52.468;13.342;2023-03-04T12:32:16;15.33;;;3.37;;
4961;SDS011;2496;52.468;13.342;2023-03-04T12:35:11;15.10;;;3.60;;
4961;SDS011;2496;52.468;13.342;2023-03-04T12:40:52;12.73;;;3.33;;
4961;SDS011;2496;52.468;13.342;2023-03-04T12:43:29;12.00;;;3.27;;
4961;SDS011;2496;52.468;13.342;2023-03-04T12:46:19;12.60;;;2.63;;
4961;SDS011;2496;52.468;13.342;2023-03-04T12:48:54;8.10;;;2.60;;
4961;SDS011;2496;52.468;13.342;2023-03-04T12:51:35;14.03;;;4.80;;
4961;SDS011;2496;52.468;13.342;2023-03-04T12:54:13;11.53;;;3.00;;
4961;SDS011;2496;52.468;13.342;2023-03-04T12:56:50;15.80;;;3.13;;
4961;SDS011;2496;52.468;13.342;2023-03-04T12:59:20;17.63;;;2.87;;
4961;SDS011;2496;52.468;13.342;2023-03-04T13:01:52;8.83;;;2.67;;
4961;SDS011;2496;52.468;13.342;2023-03-04T13:04:28;17.13;;;3.30;;
4961;SDS011;2496;52.468;13.342;2023-03-04T13:07:03;13.80;;;3.50;;
4961;SDS011;2496;52.468;13.342;2023-03-04T13:09:37;15.73;;;3.07;;
4961;SDS011;2496;52.468;13.342;2023-03-04T13:12:13;17.63;;;3.73;;
4961;SDS011;2496;52.468;13.342;2023-03-04T13:14:48;11.33;;;2.93;;
4961;SDS011;2496;52.468;13.342;2023-03-04T13:18:28;12.27;;;2.67;;
4961;SDS011;2496;52.468;13.342;2023-03-04T13:21:06;10.57;;;2.60;;
4961;SDS011;2496;52.468;13.342;2023-03-04T13:23:46;16.80;;;4.07;;
4961;SDS011;2496;52.468;13.342;2023-03-04T13:26:22;12.30;;;2.80;;
4961;SDS011;2496;52.468;13.342;2023-03-04T13:28:55;13.30;;;3.13;;
4961;SDS011;2496;52.468;13.342;2023-03-04T13:31:56;19.13;;;3.10;;
4961;SDS011;2496;52.468;13.342;2023-03-04T13:34:42;12.13;;;4.03;;
4961;SDS011;2496;52.468;13.342;2023-03-04T13:40:22;14.73;;;4.30;;
4961;SDS011;2496;52.468;13.342;2023-03-04T13:45:53;13.63;;;2.70;;
4961;SDS011;2496;52.468;13.342;2023-03-04T13:48:22;13.13;;;3.10;;
4961;SDS011;2496;52.468;13.342;2023-03-04T13:50:55;7.77;;;3.17;;
4961;SDS011;2496;52.468;13.342;2023-03-04T13:53:28;13.87;;;3.27;;
4961;SDS011;2496;52.468;13.342;2023-03-04T13:56:09;9.93;;;3.20;;
4961;SDS011;2496;52.468;13.342;2023-03-04T13:58:47;11.47;;;3.53;;
4961;SDS011;2496;52.468;13.342;2023-03-04T14:01:21;17.97;;;3.83;;
4961;SDS011;2496;52.468;13.342;2023-03-04T14:03:50;11.30;;;3.20;;
4961;SDS011;2496;52.468;13.342;2023-03-04T14:06:20;12.20;;;3.47;;
4961;SDS011;2496;52.468;13.342;2023-03-04T14:08:48;9.60;;;3.27;;
4961;SDS011;2496;52.468;13.342;2023-03-04T14:11:18;11.00;;;2.80;;
4961;SDS011;2496;52.468;13.342;2023-03-04T14:13:58;14.03;;;4.30;;
4961;SDS011;2496;52.468;13.342;2023-03-04T14:16:29;13.73;;;3.40;;
4961;SDS011;2496;52.468;13.342;2023-03-04T14:19:01;14.27;;;3.77;;
4961;SDS011;2496;52.468;13.342;2023-03-04T14:21:32;10.90;;;3.83;;
4961;SDS011;2496;52.468;13.342;2023-03-04T14:24:06;18.90;;;3.70;;
4961;SDS011;2496;52.468;13.342;2023-03-04T14:26:37;15.13;;;2.97;;
4961;SDS011;2496;52.468;13.342;2023-03-04T14:29:17;24.13;;;4.10;;
4961;SDS011;2496;52.468;13.342;2023-03-04T14:31:48;20.93;;;3.43;;
4961;SDS011;2496;52.468;13.342;2023-03-04T14:34:18;9.00;;;2.80;;
4961;SDS011;2496;52.468;13.342;2023-03-04T14:36:52;12.37;;;3.10;;
4961;SDS011;2496;52.468;13.342;2023-03-04T14:39:19;8.27;;;3.10;;
4961;SDS011;2496;52.468;13.342;2023-03-04T14:41:49;17.47;;;3.10;;
4961;SDS011;2496;52.468;13.342;2023-03-04T14:44:22;13.37;;;3.60;;
4961;SDS011;2496;52.468;13.342;2023-03-04T14:47:00;14.97;;;3.50;;
4961;SDS011;2496;52.468;13.342;2023-03-04T14:49:35;12.30;;;3.17;;
4961;SDS011;2496;52.468;13.342;2023-03-04T14:52:04;12.77;;;3.07;;
4961;SDS011;2496;52.468;13.342;2023-03-04T14:54:32;10.10;;;3.43;;
4961;SDS011;2496;52.468;13.342;2023-03-04T14:57:13;18.00;;;3.80;;
4961;SDS011;2496;52.468;13.342;2023-03-04T14:59:49;19.90;;;3.53;;
4961;SDS011;2496;52.468;13.342;2023-03-04T15:02:17;26.73;;;3.73;;
4961;SDS011;2496;52.468;13.342;2023-03-04T15:05:00;15.20;;;3.13;;
4961;SDS011;2496;52.468;13.342;2023-03-04T15:07:36;16.20;;;3.87;;
4961;SDS011;2496;52.468;13.342;2023-03-04T15:10:05;11.87;;;4.10;;
4961;SDS011;2496;52.468;13.342;2023-03-04T15:12:34;19.93;;;3.23;;
4961;SDS011;2496;52.468;13.342;2023-03-04T15:15:03;24.67;;;4.33;;
4961;SDS011;2496;52.468;13.342;2023-03-04T15:17:56;14.23;;;3.43;;
4961;SDS011;2496;52.468;13.342;2023-03-04T15:20:24;12.43;;;2.30;;
4961;SDS011;2496;52.468;13.342;2023-03-04T15:22:57;16.07;;;2.80;;
4961;SDS011;2496;52.468;13.342;2023-03-04T15:25:26;12.00;;;3.30;;